Hlavní strana
METAR-TAF:

METAR-TAF

Letiště :

Mitiga International Airport

Tripolis, Libye

zeměpisná šířka: 32-54N, zeměpisná délka: 13-17E, výška: 11 m

METAR: chybějící

Čas: 12:36 (10:36 UTC)

Předpověď počasí

Zpráva byla vytvořena před 23 hodinami a 36 minutami, v 11:00 UTC
Předpověď platná od 24 v 12 UTC do 25 v 12 UTC
Východoseverovýchodní vítr 10 kt
Viditelnost: 8000 m
Polojasno ve výšce 2500 ft
Polojasno ve výšce 8000 ft

TAF: HLLM 241100Z 2412/2512 07010KT 8000 SCT025 SCT080

Stav a předpovědi počasí z více než 4 000 letišť (zprávy METAR a TAF).

Červené a žluté tečky na mapě představují dostupné meteorologické stanice.

Když kurzor umístíte na tečku, zobrazí se název stanice.

Pak kliknutím zobrazíte stav a předpověď počasí.

Chcete-li změnit mapu, kliknutím na zelené tlačítko se znaménkem +mapu přiblížíte, kliknutím na zelené tlačítko se znaménkem – mapu oddálíte a kliknutím na zelené šipky přejdete na sousední mapy.


METAR-TAF: